Time;durP1;ratioP1;P1;durP2;ratioP2;P2;SDS_P1;SDS_P2;PMS_P1;PMS_P2;Temp;Humidity;BMP_temperature;BMP_pressure;BME280_temperature;BME280_humidity;BME280_pressure;Samples;Min_cycle;Max_cycle;Signal;HPM_P1;HPM_P2
2022/09/20 00:01:53;;;;;;;;;;;11.90;99.90;;;;;;4997927;28;19909;-67
2022/09/20 00:04:18;;;;;;;;;;;12.00;99.90;;;;;;5015515;28;19912;-67
2022/09/20 00:06:44;;;;;;;;;;;11.90;99.90;;;;;;5015312;28;19928;-68
2022/09/20 00:09:09;;;;;;;;;;;11.90;99.90;;;;;;5015574;28;19905;-67
2022/09/20 00:11:35;;;;;;;;;;;11.90;99.90;;;;;;5015629;28;19967;-68
2022/09/20 00:14:02;;;;;;;;;;;11.90;99.90;;;;;;5015161;28;19929;-68
2022/09/20 00:16:36;;;;;;;;;;;11.90;99.90;;;;;;5015359;28;19988;-67
2022/09/20 00:19:02;;;;;;;;;;;11.90;99.90;;;;;;5015071;28;19910;-68
2022/09/20 00:21:29;;;;;;;;;;;11.90;99.90;;;;;;5012409;28;19920;-67
2022/09/20 00:23:56;;;;;;;;;;;11.90;99.90;;;;;;5015033;28;19951;-68
2022/09/20 00:26:21;;;;;;;;;;;11.90;99.90;;;;;;5015220;28;19905;-67
2022/09/20 00:28:47;;;;;;;;;;;11.90;99.90;;;;;;5015026;28;19906;-67
2022/09/20 00:31:13;;;;;;;;;;;11.90;99.90;;;;;;5014924;28;20334;-68
2022/09/20 00:36:23;;;;;;;;;;;11.90;99.90;;;;;;5014599;28;20368;-67
2022/09/20 00:38:53;;;;;;;;;;;11.90;99.90;;;;;;5012889;28;19996;-66
2022/09/20 00:41:19;;;;;;;;;;;11.90;99.90;;;;;;4997857;28;19953;-69
2022/09/20 00:43:45;;;;;;;;;;;11.90;99.90;;;;;;4997758;28;19947;-67
2022/09/20 00:46:29;;;;;;;;;;;11.90;99.90;;;;;;5014836;28;20020;-67
2022/09/20 00:48:58;;;;;;;;;;;11.90;99.90;;;;;;4995332;28;19909;-68
2022/09/20 00:51:28;;;;;;;;;;;11.90;99.90;;;;;;5014465;28;19917;-68
2022/09/20 00:53:55;;;;;;;;;;;11.90;99.90;;;;;;5014589;28;20273;-68
2022/09/20 00:56:22;;;;;;;;;;;11.90;99.90;;;;;;5014590;28;19912;-67
2022/09/20 00:59:01;;;;;;;;;;;11.80;99.90;;;;;;5014348;28;19905;-68
2022/09/20 01:01:26;;;;;;;;;;;11.80;99.90;;;;;;5013679;28;20020;-66
2022/09/20 01:03:53;;;;;;;;;;;11.80;99.90;;;;;;5014732;28;19996;-67
2022/09/20 01:06:19;;;;;;;;;;;11.80;99.90;;;;;;5014520;28;19905;-67
2022/09/20 01:08:47;;;;;;;;;;;11.70;99.90;;;;;;5014544;28;19909;-67
2022/09/20 01:11:13;;;;;;;;;;;11.70;99.90;;;;;;5014339;28;19905;-67
2022/09/20 01:13:39;;;;;;;;;;;11.70;99.90;;;;;;5014348;28;19924;-68
2022/09/20 01:16:05;;;;;;;;;;;11.70;99.90;;;;;;5014286;28;19943;-68
2022/09/20 01:18:31;;;;;;;;;;;11.70;99.90;;;;;;5014275;28;19932;-68
2022/09/20 01:20:58;;;;;;;;;;;11.70;99.90;;;;;;5013974;28;19913;-68
2022/09/20 01:23:35;;;;;;;;;;;11.70;99.90;;;;;;5014292;28;20238;-66
2022/09/20 01:26:01;;;;;;;;;;;11.70;99.90;;;;;;5014100;28;19952;-66
2022/09/20 01:28:27;;;;;;;;;;;11.70;99.90;;;;;;5014032;28;19958;-67
2022/09/20 01:31:02;;;;;;;;;;;11.70;99.90;;;;;;5013978;28;20357;-66
2022/09/20 01:33:33;;;;;;;;;;;11.70;99.90;;;;;;5013746;28;20369;-67
2022/09/20 01:36:02;;;;;;;;;;;11.70;99.90;;;;;;5013701;28;19905;-68
2022/09/20 01:38:33;;;;;;;;;;;11.70;99.90;;;;;;5013715;28;19910;-67
2022/09/20 01:40:58;;;;;;;;;;;11.70;99.90;;;;;;5013674;28;19905;-66
2022/09/20 01:43:33;;;;;;;;;;;11.60;99.90;;;;;;5013708;28;20281;-67
2022/09/20 01:46:01;;;;;;;;;;;11.60;99.90;;;;;;5014069;28;19991;-67
2022/09/20 01:48:34;;;;;;;;;;;11.60;99.90;;;;;;5013444;28;19913;-66
2022/09/20 01:51:18;;;;;;;;;;;11.60;99.90;;;;;;5013382;28;19905;-66
2022/09/20 01:53:59;;;;;;;;;;;11.60;99.90;;;;;;5012790;28;20361;-66
2022/09/20 01:56:53;;;;;;;;;;;11.60;99.90;;;;;;5013339;28;20444;-66
2022/09/20 01:59:24;;;;;;;;;;;11.60;99.90;;;;;;4994162;28;19936;-67
2022/09/20 02:01:52;;;;;;;;;;;11.70;99.90;;;;;;5010642;28;19957;-66
2022/09/20 02:04:21;;;;;;;;;;;11.70;99.90;;;;;;5013042;28;19916;-66
2022/09/20 02:07:01;;;;;;;;;;;11.60;99.90;;;;;;5013276;28;19913;-66
2022/09/20 02:09:45;;;;;;;;;;;11.60;99.90;;;;;;5013375;28;19913;-67
2022/09/20 02:12:30;;;;;;;;;;;11.60;99.90;;;;;;5010855;28;19953;-67
2022/09/20 02:15:27;;;;;;;;;;;11.60;99.90;;;;;;5011155;28;20333;-67
2022/09/20 02:18:13;;;;;;;;;;;11.60;99.90;;;;;;4951970;29;20027;-68
2022/09/20 02:20:57;;;;;;;;;;;11.60;99.90;;;;;;4950920;29;19914;-68
2022/09/20 02:23:26;;;;;;;;;;;11.60;99.90;;;;;;4951326;29;19906;-66
2022/09/20 02:26:09;;;;;;;;;;;11.60;99.90;;;;;;4949875;29;20224;-67
2022/09/20 02:28:41;;;;;;;;;;;11.50;99.90;;;;;;4952016;29;19906;-68
2022/09/20 02:31:14;;;;;;;;;;;11.50;99.90;;;;;;4952445;29;19933;-66
2022/09/20 02:33:43;;;;;;;;;;;11.50;99.90;;;;;;4951775;29;19953;-68
2022/09/20 02:36:20;;;;;;;;;;;11.50;99.90;;;;;;4952050;29;19915;-66
2022/09/20 02:39:20;;;;;;;;;;;11.50;99.90;;;;;;4951810;29;20447;-68
2022/09/20 02:41:49;;;;;;;;;;;11.50;99.90;;;;;;4876055;29;19912;-67
2022/09/20 02:44:33;;;;;;;;;;;11.50;99.90;;;;;;4876141;29;19947;-67
2022/09/20 02:46:58;;;;;;;;;;;11.50;99.90;;;;;;4875730;29;19907;-68
2022/09/20 02:49:47;;;;;;;;;;;11.50;99.90;;;;;;4875861;29;20007;-68
2022/09/20 02:52:19;;;;;;;;;;;11.50;99.90;;;;;;4873333;29;20003;-66
2022/09/20 02:54:56;;;;;;;;;;;11.50;99.90;;;;;;4931923;29;20026;-67
2022/09/20 02:57:40;;;;;;;;;;;11.50;99.90;;;;;;4932528;29;19907;-66
2022/09/20 03:00:08;;;;;;;;;;;11.50;99.90;;;;;;4932343;29;19929;-66
2022/09/20 03:02:56;;;;;;;;;;;11.50;99.90;;;;;;4932109;29;19913;-68
2022/09/20 03:05:33;;;;;;;;;;;11.50;99.90;;;;;;4932295;29;19907;-67
2022/09/20 03:08:17;;;;;;;;;;;11.50;99.90;;;;;;4932051;29;19965;-66
2022/09/20 03:11:08;;;;;;;;;;;11.50;99.90;;;;;;4932356;29;19907;-69
2022/09/20 03:13:34;;;;;;;;;;;11.50;99.90;;;;;;4928305;29;20006;-67
2022/09/20 03:16:17;;;;;;;;;;;11.50;99.90;;;;;;4979377;28;20412;-67
2022/09/20 03:18:45;;;;;;;;;;;11.50;99.90;;;;;;5011530;28;19906;-67
2022/09/20 03:21:23;;;;;;;;;;;11.50;99.90;;;;;;5009324;28;20357;-68
2022/09/20 03:24:07;;;;;;;;;;;11.50;99.90;;;;;;5012175;28;20257;-68
2022/09/20 03:26:35;;;;;;;;;;;11.50;99.90;;;;;;5009127;28;20070;-68
2022/09/20 03:29:07;;;;;;;;;;;11.50;99.90;;;;;;5011648;28;19906;-67
2022/09/20 03:31:36;;;;;;;;;;;11.40;99.90;;;;;;5009586;28;19905;-68
2022/09/20 03:34:10;;;;;;;;;;;11.40;99.90;;;;;;5011722;28;19920;-68
2022/09/20 03:36:42;;;;;;;;;;;11.40;99.90;;;;;;5010078;28;19906;-67
2022/09/20 03:39:13;;;;;;;;;;;11.40;99.90;;;;;;5011595;28;19910;-68
2022/09/20 03:41:59;;;;;;;;;;;11.30;99.90;;;;;;5012039;28;19916;-68
2022/09/20 03:44:45;;;;;;;;;;;11.30;99.90;;;;;;5010329;28;19905;-69
2022/09/20 03:47:20;;;;;;;;;;;11.30;99.90;;;;;;4968047;28;19905;-68
2022/09/20 03:49:55;;;;;;;;;;;11.30;99.90;;;;;;5011299;28;19917;-68
2022/09/20 03:52:20;;;;;;;;;;;11.30;99.90;;;;;;5011654;28;19924;-69
2022/09/20 03:54:58;;;;;;;;;;;11.20;99.90;;;;;;5011301;28;19913;-67
2022/09/20 03:57:44;;;;;;;;;;;11.20;99.90;;;;;;5011506;28;19913;-67
2022/09/20 04:00:12;;;;;;;;;;;11.20;99.90;;;;;;5010624;28;20357;-67
2022/09/20 04:02:56;;;;;;;;;;;11.10;99.90;;;;;;5011607;28;19910;-69
2022/09/20 04:05:31;;;;;;;;;;;11.10;99.90;;;;;;5010443;28;19906;-66
2022/09/20 04:08:09;;;;;;;;;;;11.10;99.90;;;;;;5009956;28;19909;-69
2022/09/20 04:10:43;;;;;;;;;;;11.00;99.90;;;;;;5009407;28;19960;-68
2022/09/20 04:13:26;;;;;;;;;;;11.00;99.90;;;;;;5011345;28;19970;-67
2022/09/20 04:16:00;;;;;;;;;;;10.90;99.90;;;;;;5009126;28;20004;-68
2022/09/20 04:19:02;;;;;;;;;;;10.80;99.90;;;;;;4994092;28;19905;-69
2022/09/20 04:21:57;;;;;;;;;;;10.80;99.90;;;;;;4950388;28;20005;-67
2022/09/20 04:24:32;;;;;;;;;;;10.70;99.90;;;;;;4939578;29;20445;-67
2022/09/20 04:27:00;;;;;;;;;;;10.60;99.90;;;;;;4950540;29;19914;-67
2022/09/20 04:29:25;;;;;;;;;;;10.60;99.90;;;;;;4950276;29;19910;-66
2022/09/20 04:31:56;;;;;;;;;;;10.60;99.90;;;;;;4950377;29;19981;-67
2022/09/20 04:36:27;;;;;;;;;;;10.50;99.90;;;;;;4950282;29;20330;-67
2022/09/20 04:37:39;;;;;;;;;;;10.50;99.90;;;;;;4952632;28;19912;-68
2022/09/20 04:40:28;;;;;;;;;;;10.40;99.90;;;;;;4945475;29;19907;-68
2022/09/20 04:43:08;;;;;;;;;;;10.40;99.90;;;;;;4953619;29;19910;-67
2022/09/20 04:45:52;;;;;;;;;;;10.30;99.90;;;;;;4953883;29;19906;-69
2022/09/20 04:48:18;;;;;;;;;;;10.30;99.90;;;;;;4953941;29;19906;-69
2022/09/20 04:50:49;;;;;;;;;;;10.20;99.90;;;;;;4953875;29;20418;-68
2022/09/20 04:53:22;;;;;;;;;;;10.20;99.90;;;;;;4953822;29;20390;-67
2022/09/20 04:55:55;;;;;;;;;;;10.20;99.90;;;;;;4992748;28;20381;-68
2022/09/20 04:58:42;;;;;;;;;;;10.10;99.90;;;;;;5014268;28;19909;-69
2022/09/20 05:01:10;;;;;;;;;;;10.10;99.90;;;;;;5014214;28;20009;-68
2022/09/20 05:03:54;;;;;;;;;;;10.00;99.90;;;;;;5014338;28;20003;-68
2022/09/20 05:06:25;;;;;;;;;;;10.00;99.90;;;;;;5010351;28;19905;-68
2022/09/20 05:09:09;;;;;;;;;;;10.00;99.90;;;;;;5011763;28;20363;-68
2022/09/20 05:11:54;;;;;;;;;;;10.00;99.90;;;;;;5012520;28;20000;-67
2022/09/20 05:14:23;;;;;;;;;;;10.00;99.90;;;;;;4995265;28;19921;-68
2022/09/20 05:16:51;;;;;;;;;;;9.90;99.90;;;;;;5014170;28;19916;-68
2022/09/20 05:19:19;;;;;;;;;;;9.80;99.90;;;;;;5013959;28;19915;-68
2022/09/20 05:21:55;;;;;;;;;;;9.70;99.90;;;;;;5014286;28;19913;-68
2022/09/20 05:24:39;;;;;;;;;;;9.80;99.90;;;;;;5014172;28;19934;-68
2022/09/20 05:27:07;;;;;;;;;;;9.70;99.90;;;;;;5013123;28;20352;-69
2022/09/20 05:29:42;;;;;;;;;;;9.70;99.90;;;;;;5013887;28;19905;-67
2022/09/20 05:32:11;;;;;;;;;;;9.70;99.90;;;;;;5015381;28;19910;-67
2022/09/20 05:34:42;;;;;;;;;;;9.70;99.90;;;;;;5014558;28;19927;-67
2022/09/20 05:37:15;;;;;;;;;;;9.70;99.90;;;;;;5014573;28;19911;-66
2022/09/20 05:39:59;;;;;;;;;;;9.70;99.90;;;;;;5014088;28;19959;-69
2022/09/20 05:42:41;;;;;;;;;;;9.60;99.90;;;;;;5013586;28;19913;-67
2022/09/20 05:45:06;;;;;;;;;;;9.60;99.90;;;;;;5013932;28;19975;-69
2022/09/20 05:47:51;;;;;;;;;;;9.60;99.90;;;;;;5013798;28;19905;-67
2022/09/20 05:50:25;;;;;;;;;;;9.60;99.90;;;;;;5011805;28;20409;-66
2022/09/20 05:53:02;;;;;;;;;;;9.60;99.90;;;;;;5011170;28;19917;-68
2022/09/20 05:55:27;;;;;;;;;;;9.60;99.90;;;;;;5013572;28;19915;-68
2022/09/20 05:58:02;;;;;;;;;;;9.60;99.90;;;;;;5013746;28;19909;-67
2022/09/20 06:00:54;;;;;;;;;;;9.50;99.90;;;;;;5013220;28;19905;-68
2022/09/20 06:03:29;;;;;;;;;;;9.50;99.90;;;;;;4989071;28;19913;-67
2022/09/20 06:05:54;;;;;;;;;;;9.50;99.90;;;;;;5011337;28;20254;-66
2022/09/20 06:08:39;;;;;;;;;;;9.50;99.90;;;;;;5013161;28;19916;-67
2022/09/20 06:11:20;;;;;;;;;;;9.60;99.90;;;;;;5012719;28;19909;-68
2022/09/20 06:14:04;;;;;;;;;;;9.60;99.90;;;;;;5012780;28;19936;-69
2022/09/20 06:16:37;;;;;;;;;;;9.60;99.90;;;;;;4994932;28;20298;-68
2022/09/20 06:19:14;;;;;;;;;;;9.70;99.90;;;;;;5012811;28;20004;-67
2022/09/20 06:21:51;;;;;;;;;;;9.70;99.90;;;;;;5012462;28;19956;-68
2022/09/20 06:24:28;;;;;;;;;;;9.70;99.90;;;;;;5012618;28;19918;-67
2022/09/20 06:26:55;;;;;;;;;;;9.70;99.90;;;;;;5012798;28;19941;-67
2022/09/20 06:29:26;;;;;;;;;;;9.70;99.90;;;;;;5012285;28;19941;-67
2022/09/20 06:31:52;;;;;;;;;;;9.80;99.90;;;;;;5010048;28;19988;-67
2022/09/20 06:34:17;;;;;;;;;;;9.80;99.90;;;;;;5012294;28;20008;-69
2022/09/20 06:42:24;;;;;;;;;;;9.80;99.90;;;;;;5012143;28;19964;-66
2022/09/20 06:44:50;;;;;;;;;;;9.80;99.90;;;;;;5011688;28;19944;-67
2022/09/20 06:47:16;;;;;;;;;;;9.90;99.90;;;;;;4994667;28;19963;-66
2022/09/20 06:49:43;;;;;;;;;;;9.90;99.90;;;;;;5012595;28;19920;-68
2022/09/20 06:52:15;;;;;;;;;;;9.90;99.90;;;;;;5012430;28;19910;-68
2022/09/20 06:54:44;;;;;;;;;;;9.90;99.90;;;;;;4994499;28;20349;-66
2022/09/20 06:57:11;;;;;;;;;;;10.00;99.90;;;;;;5013233;28;19915;-67
2022/09/20 06:59:37;;;;;;;;;;;9.90;99.90;;;;;;5010912;28;19914;-66
2022/09/20 07:02:03;;;;;;;;;;;10.00;99.90;;;;;;4995228;28;20067;-66
2022/09/20 07:04:28;;;;;;;;;;;10.00;99.90;;;;;;5013167;28;19906;-68
2022/09/20 07:07:00;;;;;;;;;;;10.00;99.90;;;;;;5012923;28;20231;-67
2022/09/20 07:09:27;;;;;;;;;;;10.00;99.90;;;;;;5010464;28;20220;-66
2022/09/20 07:11:53;;;;;;;;;;;10.10;99.90;;;;;;5011875;28;19937;-67
2022/09/20 07:14:19;;;;;;;;;;;10.10;99.90;;;;;;5011772;28;19964;-67
2022/09/20 07:16:44;;;;;;;;;;;10.10;99.90;;;;;;5012304;28;19955;-66
2022/09/20 07:19:10;;;;;;;;;;;10.20;99.90;;;;;;5012121;28;19909;-66
2022/09/20 07:21:35;;;;;;;;;;;10.20;99.90;;;;;;5012509;28;19916;-67
2022/09/20 07:24:01;;;;;;;;;;;10.30;99.90;;;;;;5012451;28;19913;-66
2022/09/20 07:26:28;;;;;;;;;;;10.40;99.90;;;;;;5012821;28;19958;-68
2022/09/20 07:28:54;;;;;;;;;;;10.40;99.90;;;;;;5012530;28;19959;-66
2022/09/20 07:31:21;;;;;;;;;;;10.50;99.90;;;;;;5012214;28;19932;-68
2022/09/20 07:33:47;;;;;;;;;;;10.50;99.90;;;;;;5012879;28;20035;-66
2022/09/20 07:36:13;;;;;;;;;;;10.60;99.90;;;;;;5011196;28;20386;-67
2022/09/20 07:38:38;;;;;;;;;;;10.70;99.90;;;;;;5011896;28;19913;-66
2022/09/20 07:41:04;;;;;;;;;;;10.80;99.90;;;;;;5011797;28;19909;-68
2022/09/20 07:43:30;;;;;;;;;;;10.90;99.90;;;;;;5011780;28;20377;-68
2022/09/20 07:45:58;;;;;;;;;;;11.00;99.90;;;;;;5011878;28;19912;-65
2022/09/20 07:48:24;;;;;;;;;;;11.20;99.90;;;;;;5007785;28;19913;-68
2022/09/20 07:51:09;;;;;;;;;;;11.40;99.90;;;;;;4992902;28;19906;-68
2022/09/20 07:53:35;;;;;;;;;;;11.60;99.90;;;;;;4999819;28;20293;-67
2022/09/20 07:56:03;;;;;;;;;;;11.80;99.90;;;;;;5011201;28;19910;-67
2022/09/20 07:58:29;;;;;;;;;;;12.00;99.90;;;;;;5012366;28;20273;-68
2022/09/20 08:00:55;;;;;;;;;;;12.20;99.90;;;;;;5012417;28;19905;-67
2022/09/20 08:03:21;;;;;;;;;;;12.30;99.90;;;;;;5012798;28;20328;-69
2022/09/20 08:05:48;;;;;;;;;;;12.50;99.90;;;;;;5012562;28;19959;-68
2022/09/20 08:08:14;;;;;;;;;;;12.60;99.90;;;;;;5011248;28;20322;-67
2022/09/20 08:10:40;;;;;;;;;;;12.70;99.90;;;;;;5013261;28;19955;-67
2022/09/20 08:13:06;;;;;;;;;;;12.80;99.90;;;;;;5016391;28;19917;-67
2022/09/20 08:15:31;;;;;;;;;;;13.00;99.90;;;;;;5015108;28;20346;-66
2022/09/20 08:17:57;;;;;;;;;;;13.00;99.90;;;;;;5014805;28;20360;-67
2022/09/20 08:20:22;;;;;;;;;;;13.10;99.90;;;;;;5014466;28;19910;-66
2022/09/20 08:22:48;;;;;;;;;;;13.20;99.90;;;;;;5015026;28;19910;-67
2022/09/20 08:25:16;;;;;;;;;;;13.20;99.90;;;;;;5014807;28;20407;-70
2022/09/20 08:27:42;;;;;;;;;;;13.30;99.90;;;;;;5014909;28;20270;-68
2022/09/20 08:30:09;;;;;;;;;;;13.40;99.90;;;;;;5016019;28;19921;-69
2022/09/20 08:32:37;;;;;;;;;;;13.50;99.90;;;;;;5016303;28;19968;-69
2022/09/20 08:35:02;;;;;;;;;;;13.50;99.90;;;;;;5016485;28;20304;-69
2022/09/20 08:37:28;;;;;;;;;;;13.60;99.90;;;;;;5016424;28;19909;-69
2022/09/20 08:39:53;;;;;;;;;;;13.70;99.90;;;;;;5016605;28;19999;-68
2022/09/20 08:42:33;;;;;;;;;;;13.70;99.90;;;;;;5016312;28;19906;-68
2022/09/20 08:45:04;;;;;;;;;;;13.80;99.90;;;;;;4998521;28;19905;-68
2022/09/20 08:47:35;;;;;;;;;;;13.90;99.90;;;;;;5016034;28;20373;-69
2022/09/20 08:50:03;;;;;;;;;;;13.90;99.90;;;;;;5016024;28;20251;-68
2022/09/20 08:52:31;;;;;;;;;;;14.10;99.90;;;;;;5016069;28;19913;-69
2022/09/20 08:54:58;;;;;;;;;;;14.20;99.90;;;;;;5016079;28;19909;-67
2022/09/20 08:57:27;;;;;;;;;;;14.20;99.90;;;;;;5016121;28;19987;-68
2022/09/20 08:59:53;;;;;;;;;;;14.30;99.90;;;;;;5016024;28;19909;-68
2022/09/20 09:02:20;;;;;;;;;;;14.40;99.90;;;;;;4998476;28;19909;-69
2022/09/20 09:04:47;;;;;;;;;;;14.50;99.90;;;;;;5015724;28;19909;-69
2022/09/20 09:07:13;;;;;;;;;;;14.50;99.90;;;;;;5015920;28;19935;-69
2022/09/20 09:09:41;;;;;;;;;;;14.60;99.90;;;;;;5015665;28;19909;-69
2022/09/20 09:12:14;;;;;;;;;;;14.70;99.90;;;;;;5015545;28;19952;-68
2022/09/20 09:14:56;;;;;;;;;;;14.70;99.90;;;;;;5015582;28;19913;-68
2022/09/20 09:17:21;;;;;;;;;;;14.80;99.90;;;;;;5015735;28;19909;-68
2022/09/20 09:19:51;;;;;;;;;;;14.90;99.90;;;;;;5015434;28;20292;-66
2022/09/20 09:22:17;;;;;;;;;;;15.00;99.90;;;;;;5014859;28;19945;-69
2022/09/20 09:24:43;;;;;;;;;;;15.10;99.90;;;;;;5015289;28;20268;-69
2022/09/20 09:27:16;;;;;;;;;;;15.20;99.90;;;;;;5015341;28;19988;-69
2022/09/20 09:29:52;;;;;;;;;;;15.20;99.90;;;;;;5015410;28;19971;-67
2022/09/20 09:32:23;;;;;;;;;;;15.30;99.90;;;;;;5015294;28;19959;-67
2022/09/20 09:34:48;;;;;;;;;;;15.40;99.90;;;;;;5015245;28;19909;-69
2022/09/20 09:37:22;;;;;;;;;;;15.40;99.90;;;;;;5015281;28;19928;-69
2022/09/20 09:40:04;;;;;;;;;;;15.50;99.90;;;;;;5015075;28;19909;-67
2022/09/20 09:42:30;;;;;;;;;;;15.50;99.90;;;;;;5015236;28;19964;-66
2022/09/20 09:45:09;;;;;;;;;;;15.60;99.90;;;;;;5015134;28;19909;-66
2022/09/20 09:47:36;;;;;;;;;;;15.60;99.90;;;;;;5014912;28;19948;-69
2022/09/20 09:50:02;;;;;;;;;;;15.70;99.90;;;;;;5014875;28;20400;-68
2022/09/20 09:52:32;;;;;;;;;;;15.70;99.90;;;;;;5014972;28;19916;-67
2022/09/20 09:54:58;;;;;;;;;;;15.70;99.90;;;;;;5014926;28;20391;-67
2022/09/20 09:57:36;;;;;;;;;;;15.70;99.90;;;;;;5014880;28;20389;-68
2022/09/20 10:00:15;;;;;;;;;;;15.70;99.90;;;;;;5014717;28;19905;-68
2022/09/20 10:03:00;;;;;;;;;;;15.70;99.90;;;;;;5014792;28;19958;-68
2022/09/20 10:05:54;;;;;;;;;;;15.70;99.90;;;;;;5014773;28;19909;-67
2022/09/20 10:08:39;;;;;;;;;;;15.70;99.90;;;;;;4997044;28;19906;-69
2022/09/20 10:11:13;;;;;;;;;;;15.70;99.90;;;;;;5014477;28;19905;-68
2022/09/20 10:13:50;;;;;;;;;;;15.60;99.90;;;;;;5014872;28;19917;-69
2022/09/20 10:16:22;;;;;;;;;;;15.70;99.90;;;;;;5014641;28;19959;-70
2022/09/20 10:18:48;;;;;;;;;;;15.70;99.90;;;;;;5014726;28;19992;-69
2022/09/20 10:21:37;;;;;;;;;;;15.80;99.90;;;;;;5014825;28;20329;-68
2022/09/20 10:24:12;;;;;;;;;;;15.80;99.90;;;;;;5014726;28;19906;-69
2022/09/20 10:26:57;;;;;;;;;;;15.90;99.90;;;;;;5014264;28;19909;-68
2022/09/20 10:29:26;;;;;;;;;;;16.00;99.90;;;;;;5014298;28;19909;-68
2022/09/20 10:32:02;;;;;;;;;;;16.10;99.90;;;;;;5014042;28;19952;-68
2022/09/20 10:34:28;;;;;;;;;;;16.10;99.90;;;;;;5014235;28;20004;-69
2022/09/20 10:36:57;;;;;;;;;;;16.10;99.90;;;;;;5014485;28;20000;-67
2022/09/20 10:39:23;;;;;;;;;;;16.20;99.90;;;;;;5014019;28;19968;-69
2022/09/20 10:44:41;;;;;;;;;;;16.40;99.90;;;;;;5014048;28;19916;-69
2022/09/20 10:47:14;;;;;;;;;;;16.40;99.90;;;;;;5013771;28;20365;-69
2022/09/20 10:49:39;;;;;;;;;;;16.50;99.90;;;;;;5013837;28;19928;-69
2022/09/20 10:52:09;;;;;;;;;;;16.60;99.90;;;;;;5014228;28;20421;-68
2022/09/20 10:54:41;;;;;;;;;;;16.60;99.90;;;;;;5013706;28;19913;-68
2022/09/20 10:57:17;;;;;;;;;;;16.70;99.90;;;;;;5013999;28;19916;-68
2022/09/20 10:59:43;;;;;;;;;;;16.80;99.90;;;;;;5013671;28;19910;-69
2022/09/20 11:02:11;;;;;;;;;;;16.90;99.90;;;;;;5013772;28;19928;-70
2022/09/20 11:04:45;;;;;;;;;;;17.00;99.90;;;;;;5013554;28;19906;-70
2022/09/20 11:07:17;;;;;;;;;;;17.10;99.90;;;;;;5013480;28;19906;-69
2022/09/20 11:09:56;;;;;;;;;;;17.10;99.90;;;;;;5013606;28;19914;-67
2022/09/20 11:12:31;;;;;;;;;;;17.20;99.90;;;;;;5013718;28;19917;-68
2022/09/20 11:15:17;;;;;;;;;;;17.20;99.90;;;;;;5013485;28;19914;-69
2022/09/20 11:17:48;;;;;;;;;;;17.30;99.90;;;;;;4972703;28;20388;-69
2022/09/20 11:20:19;;;;;;;;;;;17.40;99.90;;;;;;5013579;28;19959;-69
2022/09/20 11:22:48;;;;;;;;;;;17.40;99.90;;;;;;5013411;28;19905;-68
2022/09/20 11:25:17;;;;;;;;;;;17.40;99.90;;;;;;4995700;28;19916;-69
2022/09/20 11:27:53;;;;;;;;;;;17.40;99.90;;;;;;5013250;28;19906;-69
2022/09/20 11:30:20;;;;;;;;;;;17.40;99.90;;;;;;5013219;28;19996;-68
2022/09/20 11:33:00;;;;;;;;;;;17.40;99.90;;;;;;5013306;28;19936;-68
2022/09/20 11:35:33;;;;;;;;;;;17.40;99.90;;;;;;5013296;28;19909;-69
2022/09/20 11:38:08;;;;;;;;;;;17.40;99.90;;;;;;5013203;28;19905;-68
2022/09/20 11:40:37;;;;;;;;;;;17.50;99.90;;;;;;5012989;28;20269;-69
2022/09/20 11:43:05;;;;;;;;;;;17.50;99.90;;;;;;5013123;28;19944;-70
2022/09/20 11:45:32;;;;;;;;;;;17.50;99.90;;;;;;5012810;28;19913;-69
2022/09/20 11:48:06;;;;;;;;;;;17.60;99.90;;;;;;5013191;28;19906;-69
2022/09/20 11:50:41;;;;;;;;;;;17.70;99.90;;;;;;5013367;28;20354;-69
2022/09/20 11:53:14;;;;;;;;;;;17.70;99.90;;;;;;5012893;28;20289;-68
2022/09/20 11:55:41;;;;;;;;;;;17.80;99.90;;;;;;5013117;28;19913;-69
2022/09/20 11:58:19;;;;;;;;;;;17.80;99.90;;;;;;5012690;28;20439;-68
2022/09/20 12:00:46;;;;;;;;;;;17.80;99.90;;;;;;4995386;28;19983;-68
2022/09/20 12:03:24;;;;;;;;;;;17.90;99.90;;;;;;5012802;28;19910;-69
2022/09/20 12:05:57;;;;;;;;;;;17.90;99.90;;;;;;5012918;28;19905;-68
2022/09/20 12:08:31;;;;;;;;;;;17.90;99.90;;;;;;5013016;28;19906;-68
2022/09/20 12:11:03;;;;;;;;;;;18.00;99.90;;;;;;5012809;28;20361;-69
2022/09/20 12:13:30;;;;;;;;;;;18.00;99.90;;;;;;5012751;28;20433;-69
2022/09/20 12:16:02;;;;;;;;;;;18.00;99.90;;;;;;5012684;28;19905;-69
2022/09/20 12:18:31;;;;;;;;;;;18.00;99.90;;;;;;5013032;28;19917;-70
2022/09/20 12:20:58;;;;;;;;;;;18.00;99.90;;;;;;4995291;28;19913;-68
2022/09/20 12:23:41;;;;;;;;;;;18.00;99.90;;;;;;5012750;28;19905;-69
2022/09/20 12:26:12;;;;;;;;;;;18.10;99.90;;;;;;5012771;28;19982;-68
2022/09/20 12:28:38;;;;;;;;;;;18.20;99.90;;;;;;5012665;28;19920;-67
2022/09/20 12:31:30;;;;;;;;;;;18.30;99.90;;;;;;5012774;28;20265;-69
2022/09/20 12:34:14;;;;;;;;;;;18.30;99.90;;;;;;5012651;28;20384;-67
2022/09/20 12:36:42;;;;;;;;;;;18.40;99.90;;;;;;5012491;28;19916;-69
2022/09/20 12:39:08;;;;;;;;;;;18.40;99.90;;;;;;5012783;28;19913;-68
2022/09/20 12:41:43;;;;;;;;;;;18.50;99.90;;;;;;5012652;28;19916;-70
2022/09/20 12:44:24;;;;;;;;;;;18.50;99.90;;;;;;5012642;28;20277;-67
2022/09/20 12:46:58;;;;;;;;;;;18.60;99.90;;;;;;5012837;28;19906;-70
2022/09/20 12:55:31;;;;;;;;;;;18.80;98.50;;;;;;5012779;28;20010;-68
2022/09/20 12:57:57;;;;;;;;;;;18.80;98.00;;;;;;5013405;28;20020;-67
2022/09/20 13:00:35;;;;;;;;;;;18.80;97.60;;;;;;5016098;28;19917;-69
2022/09/20 13:03:09;;;;;;;;;;;18.80;97.40;;;;;;5016332;28;19992;-69
2022/09/20 13:05:39;;;;;;;;;;;18.80;96.70;;;;;;5015857;28;19948;-69
2022/09/20 13:08:11;;;;;;;;;;;18.80;96.20;;;;;;5015739;28;19913;-68
2022/09/20 13:10:41;;;;;;;;;;;18.80;95.90;;;;;;5015674;28;20369;-69
2022/09/20 13:13:13;;;;;;;;;;;18.70;95.90;;;;;;5015567;28;19929;-67
2022/09/20 13:15:39;;;;;;;;;;;18.70;95.70;;;;;;5015701;28;20349;-69
2022/09/20 13:18:05;;;;;;;;;;;18.70;95.10;;;;;;5015636;28;19912;-68
2022/09/20 13:20:33;;;;;;;;;;;18.50;94.70;;;;;;5015688;28;19909;-68
2022/09/20 13:23:00;;;;;;;;;;;18.50;94.90;;;;;;4998135;28;19917;-68
2022/09/20 13:25:27;;;;;;;;;;;18.50;94.70;;;;;;5015196;28;19952;-69
2022/09/20 13:28:09;;;;;;;;;;;18.40;94.60;;;;;;5015451;28;20004;-68
2022/09/20 13:30:35;;;;;;;;;;;18.40;94.40;;;;;;5015208;28;19960;-69
2022/09/20 13:33:14;;;;;;;;;;;18.30;94.30;;;;;;4997644;28;20369;-68
2022/09/20 13:35:40;;;;;;;;;;;18.30;94.30;;;;;;5015376;28;19905;-69
2022/09/20 13:38:08;;;;;;;;;;;18.30;94.30;;;;;;5015628;28;19956;-68
2022/09/20 13:40:35;;;;;;;;;;;18.30;94.20;;;;;;5015234;28;19906;-67
2022/09/20 13:43:02;;;;;;;;;;;18.30;94.00;;;;;;5015140;28;19952;-68
2022/09/20 13:45:29;;;;;;;;;;;18.30;94.10;;;;;;5015056;28;19940;-69
2022/09/20 13:47:57;;;;;;;;;;;18.30;94.10;;;;;;5015261;28;19905;-69
2022/09/20 13:50:26;;;;;;;;;;;18.40;94.10;;;;;;5015337;28;19924;-69
2022/09/20 13:52:54;;;;;;;;;;;18.50;94.30;;;;;;5014833;28;19920;-68
2022/09/20 13:55:25;;;;;;;;;;;18.50;93.80;;;;;;5014710;28;19909;-68
2022/09/20 13:57:52;;;;;;;;;;;18.60;93.70;;;;;;5014826;28;19917;-68
2022/09/20 14:00:18;;;;;;;;;;;18.70;93.50;;;;;;5014637;28;19906;-69
2022/09/20 14:02:46;;;;;;;;;;;18.80;93.40;;;;;;4997543;28;19913;-69
2022/09/20 14:05:17;;;;;;;;;;;18.90;92.90;;;;;;5007183;28;19905;-68
2022/09/20 14:07:44;;;;;;;;;;;18.90;92.70;;;;;;5011041;28;19909;-68
2022/09/20 14:10:29;;;;;;;;;;;18.90;92.30;;;;;;5013359;28;20387;-69
2022/09/20 14:12:55;;;;;;;;;;;18.90;92.20;;;;;;5013466;28;19918;-71
2022/09/20 14:15:21;;;;;;;;;;;19.00;92.20;;;;;;4996069;28;19921;-69
2022/09/20 14:17:47;;;;;;;;;;;19.00;92.10;;;;;;5013820;28;19909;-69
2022/09/20 14:20:14;;;;;;;;;;;18.90;92.00;;;;;;5013441;28;20273;-69
2022/09/20 14:22:39;;;;;;;;;;;18.90;92.00;;;;;;5013770;28;19964;-69
2022/09/20 14:25:11;;;;;;;;;;;18.90;91.60;;;;;;5013504;28;19913;-70
2022/09/20 14:27:37;;;;;;;;;;;18.80;91.60;;;;;;5013724;28;19915;-69
2022/09/20 14:30:03;;;;;;;;;;;18.80;91.60;;;;;;5013863;28;19913;-68
2022/09/20 14:32:36;;;;;;;;;;;18.80;91.40;;;;;;5013627;28;19905;-71
2022/09/20 14:35:19;;;;;;;;;;;18.70;91.40;;;;;;5013404;28;19913;-69
2022/09/20 14:37:47;;;;;;;;;;;18.70;91.40;;;;;;5013441;28;19913;-69
2022/09/20 14:40:19;;;;;;;;;;;18.60;91.40;;;;;;5013487;28;20246;-67
2022/09/20 14:42:45;;;;;;;;;;;18.50;91.30;;;;;;5013542;28;19909;-70
2022/09/20 14:45:23;;;;;;;;;;;18.50;91.50;;;;;;5013216;28;19931;-69
2022/09/20 14:47:53;;;;;;;;;;;18.50;91.50;;;;;;5013717;28;19905;-69
2022/09/20 14:50:23;;;;;;;;;;;18.50;91.60;;;;;;5013652;28;19913;-68
2022/09/20 14:53:02;;;;;;;;;;;18.40;91.60;;;;;;5013529;28;19917;-72
2022/09/20 14:55:30;;;;;;;;;;;18.30;91.50;;;;;;4995831;28;19937;-66
2022/09/20 14:57:57;;;;;;;;;;;18.20;91.60;;;;;;5013471;28;19955;-69
2022/09/20 15:00:23;;;;;;;;;;;18.10;91.60;;;;;;5013407;28;20016;-70
2022/09/20 15:02:48;;;;;;;;;;;18.00;91.60;;;;;;5013056;28;20389;-69
2022/09/20 15:05:19;;;;;;;;;;;18.00;91.70;;;;;;5013373;28;20199;-68